createdAt,value
2023-04-07T00:00:49.838Z,0.40
2023-04-07T00:01:49.888Z,0.40
2023-04-07T00:02:49.902Z,0.40
2023-04-07T00:03:49.916Z,0.40
2023-04-07T00:04:49.832Z,0.40
2023-04-07T00:05:49.773Z,0.40
2023-04-07T00:06:49.760Z,0.40
2023-04-07T00:07:56.441Z,0.40
2023-04-07T00:08:51.740Z,0.40
2023-04-07T00:09:49.722Z,0.40
2023-04-07T00:10:49.712Z,0.40
2023-04-07T00:11:49.700Z,0.40
2023-04-07T00:12:49.727Z,0.30
2023-04-07T00:13:49.683Z,0.30
2023-04-07T00:14:49.685Z,0.30
2023-04-07T00:15:49.692Z,0.30
2023-04-07T00:16:49.630Z,0.40
2023-04-07T00:17:49.661Z,0.30
2023-04-07T00:18:49.608Z,0.40
2023-04-07T00:19:49.598Z,0.40
2023-04-07T00:20:49.585Z,0.40
2023-04-07T00:21:49.570Z,0.40
2023-04-07T00:22:49.562Z,0.40
2023-04-07T00:23:49.541Z,0.40
2023-04-07T00:24:49.530Z,0.40
2023-04-07T00:25:49.529Z,0.40
2023-04-07T00:26:49.504Z,0.30
2023-04-07T00:27:49.496Z,0.40
2023-04-07T00:28:49.480Z,0.30
2023-04-07T00:29:49.464Z,0.30
2023-04-07T00:30:49.491Z,0.40
2023-04-07T00:31:49.438Z,0.40
2023-04-07T00:32:49.484Z,0.40
2023-04-07T00:33:49.418Z,0.30
2023-04-07T00:34:49.398Z,0.30
2023-04-07T00:35:49.467Z,0.30
2023-04-07T00:36:49.375Z,0.40
2023-04-07T00:37:49.367Z,0.30
2023-04-07T00:38:49.350Z,0.40
2023-04-07T00:39:49.340Z,0.40
2023-04-07T00:40:49.326Z,0.40
2023-04-07T00:41:49.313Z,0.40
2023-04-07T00:42:49.296Z,0.40
2023-04-07T00:43:49.281Z,0.40
2023-04-07T00:44:49.272Z,0.30
2023-04-07T00:45:49.256Z,0.30
2023-04-07T00:46:49.312Z,0.40
2023-04-07T00:47:49.263Z,0.30
2023-04-07T00:48:49.220Z,0.30
2023-04-07T00:49:49.213Z,0.30
2023-04-07T00:50:49.194Z,0.30
2023-04-07T00:51:49.182Z,0.30
2023-04-07T00:52:49.180Z,0.40
2023-04-07T00:53:49.155Z,0.30
2023-04-07T00:54:49.143Z,0.30
2023-04-07T00:55:49.129Z,0.30
2023-04-07T00:56:49.117Z,0.30
2023-04-07T00:57:49.107Z,0.20
2023-04-07T00:58:49.090Z,0.20
2023-04-07T00:59:49.078Z,0.30
2023-04-07T01:00:49.068Z,0.30
2023-04-07T01:01:49.129Z,0.30
2023-04-07T01:02:49.297Z,0.20
2023-04-07T01:03:49.226Z,0.30
2023-04-07T01:04:49.117Z,0.20
2023-04-07T01:05:48.995Z,0.30
2023-04-07T01:06:48.989Z,0.20
2023-04-07T01:07:48.969Z,0.20
2023-04-07T01:08:48.959Z,0.30
2023-04-07T01:09:48.944Z,0.20
2023-04-07T01:10:48.935Z,0.30
2023-04-07T01:11:48.920Z,0.20
2023-04-07T01:12:48.908Z,0.20
2023-04-07T01:13:48.891Z,0.20
2023-04-07T01:14:48.879Z,0.20
2023-04-07T01:15:48.921Z,0.20
2023-04-07T01:16:48.868Z,0.20
2023-04-07T01:17:48.875Z,0.30
2023-04-07T01:18:48.852Z,0.20
2023-04-07T01:19:48.819Z,0.30
2023-04-07T01:20:48.802Z,0.20
2023-04-07T01:21:48.789Z,0.30
2023-04-07T01:22:48.775Z,0.30
2023-04-07T01:23:48.761Z,0.20
2023-04-07T01:24:48.751Z,0.30
2023-04-07T01:25:48.738Z,0.20
2023-04-07T01:26:48.729Z,0.30
2023-04-07T01:27:48.708Z,0.20
2023-04-07T01:29:48.682Z,0.30
2023-04-07T01:30:48.677Z,0.30
2023-04-07T01:31:48.722Z,0.30
2023-04-07T01:32:48.665Z,0.20
2023-04-07T01:33:48.643Z,0.30
2023-04-07T01:34:48.644Z,0.20
2023-04-07T01:35:48.627Z,0.30
2023-04-07T01:36:48.606Z,0.20
2023-04-07T01:37:48.590Z,0.20
2023-04-07T01:38:48.570Z,0.20
2023-04-07T01:39:48.558Z,0.30
2023-04-07T01:40:48.559Z,0.30
2023-04-07T01:41:48.530Z,0.30
2023-04-07T01:42:48.519Z,0.30
2023-04-07T01:43:48.517Z,0.30
2023-04-07T01:44:48.495Z,0.20
2023-04-07T01:45:48.482Z,0.30
2023-04-07T01:46:48.540Z,0.20
2023-04-07T01:47:48.483Z,0.20
2023-04-07T01:48:48.442Z,0.20
2023-04-07T01:49:48.428Z,0.20
2023-04-07T01:50:48.443Z,0.30
2023-04-07T01:51:48.406Z,0.20
2023-04-07T01:52:48.393Z,0.30
2023-04-07T01:53:48.381Z,0.20
2023-04-07T01:54:48.369Z,0.30
2023-04-07T01:55:48.351Z,0.20
2023-04-07T01:56:48.341Z,0.20
2023-04-07T01:57:48.325Z,0.20
2023-04-07T01:58:48.315Z,0.20
2023-04-07T01:59:48.299Z,0.30
2023-04-07T02:00:48.313Z,0.20
2023-04-07T02:01:48.507Z,0.30
2023-04-07T02:02:48.412Z,0.20
2023-04-07T02:03:48.431Z,0.20
2023-04-07T02:04:48.237Z,0.20
2023-04-07T02:05:48.224Z,0.20
2023-04-07T02:06:48.237Z,0.30
2023-04-07T02:07:48.202Z,0.20
2023-04-07T02:08:48.191Z,0.30
2023-04-07T02:09:48.191Z,0.20
2023-04-07T02:10:48.159Z,0.30
2023-04-07T02:11:48.146Z,0.30
2023-04-07T02:12:48.137Z,0.20
2023-04-07T02:13:48.121Z,0.30
2023-04-07T02:14:48.108Z,0.20
2023-04-07T02:16:49.051Z,0.20
2023-04-07T02:17:48.125Z,0.20
2023-04-07T02:18:48.058Z,0.10
2023-04-07T02:19:48.042Z,0.20
2023-04-07T02:20:48.035Z,0.20
2023-04-07T02:21:48.015Z,0.20
2023-04-07T02:22:48.029Z,0.20
2023-04-07T02:23:48.003Z,0.20
2023-04-07T02:24:47.992Z,0.20
2023-04-07T02:25:47.965Z,0.20
2023-04-07T02:26:47.965Z,0.20
2023-04-07T02:27:47.947Z,0.30
2023-04-07T02:28:47.925Z,0.20
2023-04-07T02:29:47.918Z,0.30
2023-04-07T02:30:47.901Z,0.20
2023-04-07T02:31:47.942Z,0.20
2023-04-07T02:32:47.927Z,0.20
2023-04-07T02:33:47.861Z,0.20
2023-04-07T02:34:47.852Z,0.20
2023-04-07T02:35:47.833Z,0.20
2023-04-07T02:36:47.866Z,0.20
2023-04-07T02:37:47.808Z,0.20
2023-04-07T02:38:47.827Z,0.20
2023-04-07T02:39:47.786Z,0.20
2023-04-07T02:40:47.770Z,0.20
2023-04-07T02:41:47.757Z,0.20
2023-04-07T02:42:47.743Z,0.20
2023-04-07T02:43:47.736Z,0.20
2023-04-07T02:44:47.718Z,0.20
2023-04-07T02:45:47.747Z,0.20
2023-04-07T02:46:47.693Z,0.10
2023-04-07T02:47:47.780Z,0.20
2023-04-07T02:48:47.667Z,0.20
2023-04-07T02:49:47.652Z,0.10
2023-04-07T02:50:47.643Z,0.20
2023-04-07T02:51:47.624Z,0.20
2023-04-07T02:52:47.654Z,0.20
2023-04-07T02:53:47.597Z,0.20
2023-04-07T02:54:47.612Z,0.20
2023-04-07T02:55:47.587Z,0.20
2023-04-07T02:56:47.563Z,0.20
2023-04-07T02:57:47.552Z,0.20
2023-04-07T02:58:47.555Z,0.20
2023-04-07T02:59:47.521Z,0.20
2023-04-07T03:00:49.064Z,0.10
2023-04-07T03:01:47.647Z,0.20
2023-04-07T03:02:47.733Z,0.20
2023-04-07T03:03:47.609Z,0.20
2023-04-07T03:04:47.457Z,0.20
2023-04-07T03:05:47.439Z,0.20
2023-04-07T03:06:47.433Z,0.20
2023-04-07T03:07:47.415Z,0.20
2023-04-07T03:08:47.403Z,0.20
2023-04-07T03:09:47.389Z,0.20
2023-04-07T03:10:47.405Z,0.20
2023-04-07T03:11:47.363Z,0.20
2023-04-07T03:12:47.363Z,0.20
2023-04-07T03:13:47.337Z,0.20
2023-04-07T03:14:47.325Z,0.10
2023-04-07T03:15:47.328Z,0.20
2023-04-07T03:16:47.374Z,0.20
2023-04-07T03:17:47.349Z,0.20
2023-04-07T03:18:47.278Z,0.20
2023-04-07T03:19:47.267Z,0.20
2023-04-07T03:20:47.248Z,0.20
2023-04-07T03:21:47.270Z,0.10
2023-04-07T03:22:47.241Z,0.20
2023-04-07T03:23:47.208Z,0.20
2023-04-07T03:24:47.197Z,0.20
2023-04-07T03:25:48.239Z,0.20
2023-04-07T03:26:47.220Z,0.20
2023-04-07T03:27:47.155Z,0.20
2023-04-07T03:28:47.157Z,0.20
2023-04-07T03:29:47.133Z,0.20
2023-04-07T03:30:47.176Z,0.30
2023-04-07T03:31:47.110Z,0.20
2023-04-07T03:32:47.121Z,0.20
2023-04-07T03:33:47.085Z,0.10
2023-04-07T03:34:47.069Z,0.20
2023-04-07T03:35:47.087Z,0.20
2023-04-07T03:36:47.043Z,0.20
2023-04-07T03:37:47.054Z,0.20
2023-04-07T03:38:47.024Z,0.20
2023-04-07T03:39:47.010Z,0.20
2023-04-07T03:40:47.000Z,0.20
2023-04-07T03:41:46.979Z,0.20
2023-04-07T03:42:46.998Z,0.20
2023-04-07T03:43:46.952Z,0.20
2023-04-07T03:44:46.940Z,0.20
2023-04-07T03:45:46.931Z,0.20
2023-04-07T03:46:46.928Z,0.20
2023-04-07T03:47:46.937Z,0.20
2023-04-07T03:48:46.888Z,0.20
2023-04-07T03:49:46.877Z,0.20
2023-04-07T03:50:46.885Z,0.20
2023-04-07T03:51:46.848Z,0.20
2023-04-07T03:52:46.837Z,0.20
2023-04-07T03:53:46.822Z,0.20
2023-04-07T03:54:46.810Z,0.20
2023-04-07T03:55:46.804Z,0.20
2023-04-07T03:56:46.792Z,0.20
2023-04-07T03:57:46.770Z,0.20
2023-04-07T03:58:46.791Z,0.20
2023-04-07T03:59:46.746Z,0.20
2023-04-07T04:00:46.733Z,0.20
2023-04-07T04:01:46.744Z,0.20
2023-04-07T04:02:46.735Z,0.20
2023-04-07T04:03:46.914Z,0.20
2023-04-07T04:04:46.706Z,0.10
2023-04-07T04:05:46.666Z,0.20
2023-04-07T04:06:46.659Z,0.20
2023-04-07T04:07:46.654Z,0.20
2023-04-07T04:08:46.628Z,0.20
2023-04-07T04:09:46.620Z,0.20
2023-04-07T04:10:46.612Z,0.20
2023-04-07T04:11:46.591Z,0.20
2023-04-07T04:12:46.581Z,0.20
2023-04-07T04:13:46.566Z,0.10
2023-04-07T04:14:46.591Z,0.20
2023-04-07T04:15:46.684Z,0.20
2023-04-07T04:16:46.535Z,0.10
2023-04-07T04:17:46.561Z,0.20
2023-04-07T04:18:46.501Z,0.10
2023-04-07T04:19:46.488Z,0.20
2023-04-07T04:20:46.484Z,0.10
2023-04-07T04:21:46.511Z,0.20
2023-04-07T04:22:46.471Z,0.10
2023-04-07T04:23:46.434Z,0.10
2023-04-07T04:24:46.423Z,0.20
2023-04-07T04:25:46.413Z,0.20
2023-04-07T04:26:46.406Z,0.20
2023-04-07T04:27:46.402Z,0.10
2023-04-07T04:28:46.400Z,0.20
2023-04-07T04:29:46.359Z,0.20
2023-04-07T04:30:46.375Z,0.20
2023-04-07T04:31:46.386Z,0.20
2023-04-07T04:32:46.351Z,0.10
2023-04-07T04:33:46.320Z,0.20
2023-04-07T04:34:46.294Z,0.10
2023-04-07T04:35:46.286Z,0.20
2023-04-07T04:36:46.302Z,0.20
2023-04-07T04:37:46.257Z,0.20
2023-04-07T04:38:46.254Z,0.20
2023-04-07T04:39:46.232Z,0.10
2023-04-07T04:40:46.219Z,0.20
2023-04-07T04:41:46.209Z,0.20
2023-04-07T04:42:46.194Z,0.10
2023-04-07T04:43:47.868Z,0.20
2023-04-07T04:44:46.172Z,0.20
2023-04-07T04:45:46.166Z,0.20
2023-04-07T04:46:46.202Z,0.20
2023-04-07T04:47:46.171Z,0.10
2023-04-07T04:48:46.120Z,0.20
2023-04-07T04:49:46.111Z,0.20
2023-04-07T04:50:46.094Z,0.20
2023-04-07T04:51:46.084Z,0.10
2023-04-07T04:52:46.074Z,0.20
2023-04-07T04:53:46.057Z,0.20
2023-04-07T04:54:46.045Z,0.20
2023-04-07T04:55:46.033Z,0.20
2023-04-07T04:56:46.023Z,0.20
2023-04-07T04:57:46.010Z,0.20
2023-04-07T04:58:46.034Z,0.10
2023-04-07T04:59:45.981Z,0.20
2023-04-07T05:00:45.989Z,0.20
2023-04-07T05:01:45.988Z,0.20
2023-04-07T05:02:46.155Z,0.20
2023-04-07T05:03:46.009Z,0.10
2023-04-07T05:04:46.099Z,0.10
2023-04-07T05:05:45.901Z,0.10
2023-04-07T05:06:45.894Z,0.20
2023-04-07T05:07:45.875Z,0.10
2023-04-07T05:08:45.861Z,0.20
2023-04-07T05:09:45.852Z,0.20
2023-04-07T05:10:46.678Z,36.29
2023-04-07T05:11:45.828Z,0.60
2023-04-07T05:12:45.809Z,0.50
2023-04-07T05:13:45.797Z,0.40
2023-04-07T05:14:45.783Z,0.50
2023-04-07T05:15:45.776Z,0.40
2023-04-07T05:16:45.768Z,0.40
2023-04-07T05:17:45.771Z,0.40
2023-04-07T05:18:45.761Z,0.50
2023-04-07T05:19:45.724Z,0.60
2023-04-07T05:20:45.723Z,0.40
2023-04-07T05:21:45.697Z,69.19
2023-04-07T05:22:45.682Z,0.40
2023-04-07T05:23:45.668Z,0.50
2023-04-07T05:24:45.668Z,0.50
2023-04-07T05:25:45.648Z,0.50
2023-04-07T05:26:45.635Z,0.60
2023-04-07T05:27:45.619Z,0.50
2023-04-07T05:28:45.604Z,0.50
2023-04-07T05:29:45.600Z,0.50
2023-04-07T05:30:45.580Z,0.50
2023-04-07T05:31:45.617Z,0.50
2023-04-07T05:32:45.618Z,25.00
2023-04-07T05:33:45.544Z,0.40
2023-04-07T05:34:45.628Z,0.40
2023-04-07T05:35:45.656Z,0.40
2023-04-07T05:36:45.508Z,0.50
2023-04-07T05:37:45.498Z,0.40
2023-04-07T05:38:45.481Z,0.50
2023-04-07T05:39:45.469Z,0.50
2023-04-07T05:40:45.452Z,0.40
2023-04-07T05:41:45.447Z,0.50
2023-04-07T05:42:45.436Z,40.40
2023-04-07T05:43:45.425Z,0.50
2023-04-07T05:44:45.402Z,0.30
2023-04-07T05:45:45.431Z,0.50
2023-04-07T05:46:45.379Z,0.40
2023-04-07T05:47:45.374Z,0.40
2023-04-07T05:48:45.354Z,0.50
2023-04-07T05:49:45.340Z,0.40
2023-04-07T05:50:45.360Z,0.40
2023-04-07T05:51:46.736Z,0.40
2023-04-07T05:52:45.307Z,0.40
2023-04-07T05:53:45.286Z,65.59
2023-04-07T05:54:45.281Z,0.40
2023-04-07T05:55:45.263Z,0.40
2023-04-07T05:56:45.250Z,0.40
2023-04-07T05:57:45.239Z,0.40
2023-04-07T05:58:45.229Z,0.50
2023-04-07T05:59:45.212Z,0.40
2023-04-07T06:00:45.210Z,0.40
2023-04-07T06:01:45.236Z,0.40
2023-04-07T06:02:45.428Z,0.40
2023-04-07T06:03:45.261Z,1.20
2023-04-07T06:04:45.150Z,68.30
2023-04-07T06:05:45.288Z,67.69
2023-04-07T06:06:45.145Z,67.40
2023-04-07T06:07:45.136Z,66.90
2023-04-07T06:08:45.096Z,65.30
2023-04-07T06:09:45.083Z,66.69
2023-04-07T06:10:45.071Z,66.59
2023-04-07T06:11:45.067Z,66.50
2023-04-07T06:12:45.061Z,65.80
2023-04-07T06:13:45.037Z,66.59
2023-04-07T06:14:45.019Z,65.69
2023-04-07T06:15:45.045Z,66.40
2023-04-07T06:16:45.089Z,64.40
2023-04-07T06:17:44.994Z,65.40
2023-04-07T06:18:44.973Z,65.30
2023-04-07T06:19:44.954Z,66.50
2023-04-07T06:20:44.943Z,67.09
2023-04-07T06:21:44.930Z,66.30
2023-04-07T06:22:44.960Z,66.50
2023-04-07T06:23:44.905Z,67.00
2023-04-07T06:24:44.891Z,66.90
2023-04-07T06:25:44.878Z,65.09
2023-04-07T06:26:44.874Z,63.59
2023-04-07T06:27:44.861Z,64.09
2023-04-07T06:28:44.845Z,64.19
2023-04-07T06:29:44.829Z,62.79
2023-04-07T06:30:44.874Z,64.69
2023-04-07T06:31:44.813Z,63.09
2023-04-07T06:32:44.823Z,63.09
2023-04-07T06:33:44.778Z,64.40
2023-04-07T06:34:44.765Z,63.90
2023-04-07T06:35:44.754Z,64.00
2023-04-07T06:36:46.008Z,64.19
2023-04-07T06:37:44.730Z,63.79
2023-04-07T06:38:44.742Z,64.50
2023-04-07T06:39:44.704Z,62.59
2023-04-07T06:40:44.688Z,63.29
2023-04-07T06:41:44.681Z,61.00
2023-04-07T06:42:44.661Z,60.29
2023-04-07T06:43:44.686Z,60.59
2023-04-07T06:44:44.638Z,59.59
2023-04-07T06:45:44.669Z,58.09
2023-04-07T06:46:44.696Z,55.40
2023-04-07T06:47:44.657Z,55.70
2023-04-07T06:48:44.586Z,56.50
2023-04-07T06:49:44.577Z,55.00
2023-04-07T06:50:44.563Z,56.20
2023-04-07T06:51:44.553Z,55.59
2023-04-07T06:52:44.537Z,55.90
2023-04-07T06:53:44.527Z,56.00
2023-04-07T06:54:44.810Z,57.40
2023-04-07T06:55:44.502Z,57.90
2023-04-07T06:56:44.489Z,56.09
2023-04-07T06:57:44.475Z,55.20
2023-04-07T06:58:44.463Z,55.09
2023-04-07T06:59:44.452Z,52.79
2023-04-07T07:00:44.435Z,53.00
2023-04-07T07:01:44.483Z,52.00
2023-04-07T07:02:44.632Z,52.20
2023-04-07T07:03:44.478Z,52.90
2023-04-07T07:04:44.384Z,53.29
2023-04-07T07:05:44.376Z,53.00
2023-04-07T07:06:44.360Z,54.40
2023-04-07T07:07:44.549Z,53.20
2023-04-07T07:08:44.354Z,53.09
2023-04-07T07:09:44.333Z,53.20
2023-04-07T07:10:44.333Z,53.70
2023-04-07T07:11:44.299Z,56.09
2023-04-07T07:12:44.287Z,56.40
2023-04-07T07:13:44.279Z,56.50
2023-04-07T07:14:44.258Z,56.29
2023-04-07T07:15:44.254Z,54.20
2023-04-07T07:16:44.241Z,52.59
2023-04-07T07:17:44.247Z,51.70
2023-04-07T07:18:44.224Z,51.79
2023-04-07T07:19:44.196Z,51.29
2023-04-07T07:20:44.183Z,51.40
2023-04-07T07:21:44.176Z,53.79
2023-04-07T07:22:44.165Z,55.90
2023-04-07T07:23:44.140Z,57.40
2023-04-07T07:24:44.122Z,59.40
2023-04-07T07:25:44.142Z,66.09
2023-04-07T07:26:44.710Z,66.30
2023-04-07T07:27:44.084Z,66.09
2023-04-07T07:28:44.070Z,66.40
2023-04-07T07:29:44.058Z,64.00
2023-04-07T07:30:44.081Z,59.29
2023-04-07T07:31:44.034Z,55.59
2023-04-07T07:32:44.038Z,53.20
2023-04-07T07:33:44.168Z,52.50
2023-04-07T07:34:43.998Z,53.09
2023-04-07T07:35:43.976Z,56.79
2023-04-07T07:36:43.965Z,59.40
2023-04-07T07:37:43.952Z,59.79
2023-04-07T07:38:43.940Z,59.29
2023-04-07T07:39:43.933Z,61.40
2023-04-07T07:40:43.914Z,66.59
2023-04-07T07:41:43.897Z,64.80
2023-04-07T07:42:43.905Z,63.09
2023-04-07T07:43:43.868Z,68.09
2023-04-07T07:44:43.857Z,70.40
2023-04-07T07:45:43.846Z,70.09
2023-04-07T07:46:43.896Z,72.00
2023-04-07T07:47:43.856Z,72.19
2023-04-07T07:48:43.805Z,70.40
2023-04-07T07:49:43.800Z,64.80
2023-04-07T07:50:43.778Z,60.00
2023-04-07T07:51:43.773Z,58.70
2023-04-07T07:52:43.754Z,60.59
2023-04-07T07:53:43.762Z,65.09
2023-04-07T07:54:43.723Z,66.19
2023-04-07T07:55:43.713Z,60.59
2023-04-07T07:56:43.702Z,58.79
2023-04-07T07:57:43.686Z,58.20
2023-04-07T07:58:43.696Z,53.90
2023-04-07T07:59:43.657Z,50.50
2023-04-07T08:00:43.647Z,50.20
2023-04-07T08:01:43.670Z,51.29
2023-04-07T08:02:43.704Z,52.79
2023-04-07T08:04:43.619Z,59.90
2023-04-07T08:05:43.581Z,59.59
2023-04-07T08:06:43.562Z,60.40
2023-04-07T08:07:43.550Z,60.90
2023-04-07T08:08:43.536Z,59.29
2023-04-07T08:09:43.525Z,59.00
2023-04-07T08:10:43.511Z,57.79
2023-04-07T08:11:43.498Z,61.79
2023-04-07T08:12:43.486Z,70.59
2023-04-07T08:13:43.472Z,68.40
2023-04-07T08:14:43.486Z,67.90
2023-04-07T08:15:43.533Z,68.30
2023-04-07T08:16:43.497Z,69.19
2023-04-07T08:17:43.448Z,71.50
2023-04-07T08:18:43.407Z,80.30
2023-04-07T08:19:43.393Z,84.80
2023-04-07T08:20:43.381Z,96.30
2023-04-07T08:21:43.366Z,107.50
2023-04-07T08:22:43.352Z,104.40
2023-04-07T08:23:43.345Z,105.69
2023-04-07T08:24:43.329Z,111.80
2023-04-07T08:25:43.311Z,105.50
2023-04-07T08:26:43.300Z,105.30
2023-04-07T08:27:43.287Z,103.30
2023-04-07T08:28:43.272Z,98.19
2023-04-07T08:29:43.264Z,98.90
2023-04-07T08:30:43.273Z,120.30
2023-04-07T08:31:43.295Z,121.59
2023-04-07T08:32:43.252Z,110.80
2023-04-07T08:33:43.208Z,99.80
2023-04-07T08:34:43.201Z,88.50
2023-04-07T08:35:43.183Z,81.59
2023-04-07T08:36:44.139Z,90.80
2023-04-07T08:37:43.161Z,108.00
2023-04-07T08:38:43.143Z,114.59
2023-04-07T08:39:43.129Z,110.59
2023-04-07T08:40:43.117Z,102.40
2023-04-07T08:41:43.129Z,83.69
2023-04-07T08:42:43.093Z,72.90
2023-04-07T08:43:43.082Z,70.00
2023-04-07T08:44:43.062Z,69.80
2023-04-07T08:45:43.052Z,67.40
2023-04-07T08:46:43.098Z,62.00
2023-04-07T08:47:43.114Z,65.90
2023-04-07T08:48:43.014Z,67.40
2023-04-07T08:49:43.025Z,72.69
2023-04-07T08:50:42.987Z,79.59
2023-04-07T08:51:42.978Z,79.80
2023-04-07T08:52:42.968Z,75.19
2023-04-07T08:53:42.965Z,72.19
2023-04-07T08:54:42.942Z,71.80
2023-04-07T08:55:42.932Z,75.09
2023-04-07T08:56:42.921Z,74.09
2023-04-07T08:57:42.898Z,72.80
2023-04-07T08:58:42.888Z,73.19
2023-04-07T08:59:42.872Z,80.19
2023-04-07T09:00:42.900Z,101.59
2023-04-07T09:01:42.933Z,113.00
2023-04-07T09:02:42.940Z,119.90
2023-04-07T09:03:42.889Z,124.00
2023-04-07T09:04:42.808Z,127.40
2023-04-07T09:05:42.792Z,127.80
2023-04-07T09:06:42.782Z,122.00
2023-04-07T09:07:42.772Z,117.40
2023-04-07T09:08:42.756Z,121.09
2023-04-07T09:09:42.740Z,122.00
2023-04-07T09:10:42.736Z,118.59
2023-04-07T09:11:42.718Z,116.59
2023-04-07T09:12:42.704Z,110.59
2023-04-07T09:13:42.698Z,110.69
2023-04-07T09:14:42.679Z,106.50
2023-04-07T09:15:42.662Z,108.59
2023-04-07T09:16:42.687Z,109.50
2023-04-07T09:17:42.691Z,104.80
2023-04-07T09:18:42.652Z,103.30
2023-04-07T09:19:42.616Z,96.80
2023-04-07T09:20:42.609Z,94.09
2023-04-07T09:21:42.591Z,92.69
2023-04-07T09:22:42.605Z,91.69
2023-04-07T09:23:42.573Z,88.00
2023-04-07T09:24:42.553Z,92.00
2023-04-07T09:25:42.537Z,100.00
2023-04-07T09:26:42.532Z,105.40
2023-04-07T09:27:42.517Z,105.09
2023-04-07T09:28:42.502Z,108.00
2023-04-07T09:29:42.483Z,107.80
2023-04-07T09:30:42.472Z,109.09
2023-04-07T09:31:42.498Z,114.69
2023-04-07T09:32:42.492Z,113.19
2023-04-07T09:33:42.433Z,112.59
2023-04-07T09:34:42.450Z,110.69
2023-04-07T09:35:42.441Z,106.19
2023-04-07T09:36:42.391Z,102.90
2023-04-07T09:37:42.380Z,96.00
2023-04-07T09:38:42.368Z,93.69
2023-04-07T09:39:42.352Z,93.50
2023-04-07T09:40:42.342Z,94.19
2023-04-07T09:41:42.400Z,90.19
2023-04-07T09:42:42.319Z,88.30
2023-04-07T09:43:42.304Z,91.00
2023-04-07T09:44:42.299Z,91.80
2023-04-07T09:45:42.354Z,90.40
2023-04-07T09:46:42.375Z,87.19
2023-04-07T09:47:42.283Z,78.40
2023-04-07T09:48:42.235Z,73.30
2023-04-07T09:49:42.221Z,74.19
2023-04-07T09:50:42.265Z,71.90
2023-04-07T09:51:42.196Z,73.69
2023-04-07T09:52:42.186Z,74.80
2023-04-07T09:53:42.180Z,72.90
2023-04-07T09:54:42.160Z,71.50
2023-04-07T09:55:42.143Z,69.30
2023-04-07T09:56:42.144Z,78.09
2023-04-07T09:57:42.124Z,84.50
2023-04-07T09:58:42.111Z,85.59
2023-04-07T09:59:42.097Z,95.00
2023-04-07T10:00:42.089Z,94.69
2023-04-07T10:01:42.214Z,93.69
2023-04-07T10:02:42.170Z,92.80
2023-04-07T10:03:42.109Z,96.90
2023-04-07T10:04:42.034Z,101.50
2023-04-07T10:05:42.020Z,108.80
2023-04-07T10:06:42.052Z,108.19
2023-04-07T10:07:42.834Z,112.69
2023-04-07T10:08:41.982Z,114.90
2023-04-07T10:09:41.968Z,105.80
2023-04-07T10:10:41.964Z,106.59
2023-04-07T10:11:41.944Z,105.90
2023-04-07T10:12:41.939Z,106.80
2023-04-07T10:13:41.922Z,109.40
2023-04-07T10:14:41.909Z,103.90
2023-04-07T10:15:41.901Z,93.30
2023-04-07T10:16:41.928Z,90.40
2023-04-07T10:17:41.909Z,92.19
2023-04-07T10:18:41.859Z,84.59
2023-04-07T10:19:41.843Z,88.00
2023-04-07T10:20:41.835Z,90.59
2023-04-07T10:21:41.819Z,92.90
2023-04-07T10:22:41.831Z,98.59
2023-04-07T10:23:41.793Z,96.50
2023-04-07T10:24:41.785Z,99.50
2023-04-07T10:25:41.770Z,96.19
2023-04-07T10:26:41.866Z,97.59
2023-04-07T10:27:41.750Z,95.19
2023-04-07T10:28:41.733Z,98.09
2023-04-07T10:29:41.728Z,96.19
2023-04-07T10:30:41.786Z,97.00
2023-04-07T10:31:41.698Z,102.19
2023-04-07T10:32:41.725Z,102.09
2023-04-07T10:33:41.673Z,101.09
2023-04-07T10:34:41.656Z,103.09
2023-04-07T10:35:41.665Z,103.80
2023-04-07T10:36:41.632Z,102.80
2023-04-07T10:37:41.639Z,104.59
2023-04-07T10:38:41.629Z,105.09
2023-04-07T10:39:41.590Z,106.30
2023-04-07T10:40:41.579Z,100.90
2023-04-07T10:41:41.561Z,99.50
2023-04-07T10:42:41.563Z,99.00
2023-04-07T10:43:41.563Z,96.59
2023-04-07T10:44:41.532Z,98.90
2023-04-07T10:45:41.514Z,109.90
2023-04-07T10:46:41.570Z,103.69
2023-04-07T10:47:41.539Z,87.90
2023-04-07T10:48:41.478Z,71.19
2023-04-07T10:49:41.464Z,62.79
2023-04-07T10:50:41.451Z,59.50
2023-04-07T10:51:41.442Z,59.09
2023-04-07T10:52:41.425Z,59.20
2023-04-07T10:53:41.411Z,53.59
2023-04-07T10:54:41.447Z,55.09
2023-04-07T10:55:41.395Z,51.90
2023-04-07T10:56:41.374Z,50.50
2023-04-07T10:57:41.360Z,49.79
2023-04-07T10:58:41.348Z,48.29
2023-04-07T10:59:41.331Z,48.79
2023-04-07T11:00:41.326Z,48.50
2023-04-07T11:01:41.413Z,50.40
2023-04-07T11:02:41.773Z,49.79
2023-04-07T11:03:41.360Z,51.00
2023-04-07T11:04:41.314Z,50.50
2023-04-07T11:05:41.267Z,48.20
2023-04-07T11:06:41.245Z,51.40
2023-04-07T11:07:41.233Z,56.29
2023-04-07T11:08:41.218Z,62.00
2023-04-07T11:09:41.225Z,61.50
2023-04-07T11:10:41.233Z,63.70
2023-04-07T11:11:41.179Z,64.09
2023-04-07T11:12:41.169Z,62.59
2023-04-07T11:13:41.152Z,68.09
2023-04-07T11:14:41.152Z,69.80
2023-04-07T11:15:41.223Z,84.59
2023-04-07T11:16:41.119Z,90.09
2023-04-07T11:17:41.148Z,89.00
2023-04-07T11:18:41.094Z,91.30
2023-04-07T11:19:41.073Z,89.09
2023-04-07T11:20:41.063Z,87.19
2023-04-07T11:21:41.047Z,89.40
2023-04-07T11:22:41.038Z,95.19
2023-04-07T11:23:41.033Z,106.00
2023-04-07T11:24:41.012Z,112.30
2023-04-07T11:25:40.997Z,114.59
2023-04-07T11:26:41.011Z,117.69
2023-04-07T11:27:40.971Z,115.90
2023-04-07T11:28:40.961Z,115.19
2023-04-07T11:29:40.944Z,112.40
2023-04-07T11:30:40.933Z,112.80
2023-04-07T11:31:40.955Z,113.00
2023-04-07T11:32:40.930Z,118.80
2023-04-07T11:33:40.895Z,121.90
2023-04-07T11:34:40.888Z,121.69
2023-04-07T11:35:40.873Z,117.30
2023-04-07T11:36:40.978Z,106.50
2023-04-07T11:37:40.844Z,98.09
2023-04-07T11:38:40.833Z,96.40
2023-04-07T11:39:40.819Z,95.00
2023-04-07T11:40:40.805Z,97.09
2023-04-07T11:41:40.792Z,100.40
2023-04-07T11:42:40.807Z,110.40
2023-04-07T11:43:40.766Z,112.80
2023-04-07T11:44:40.753Z,122.09
2023-04-07T11:45:40.741Z,125.80
2023-04-07T11:46:40.754Z,127.30
2023-04-07T11:47:40.737Z,120.69
2023-04-07T11:48:40.731Z,121.80
2023-04-07T11:49:40.688Z,124.50
2023-04-07T11:50:40.693Z,123.00
2023-04-07T11:51:40.664Z,121.80
2023-04-07T11:52:40.652Z,123.90
2023-04-07T11:53:40.633Z,125.50
2023-04-07T11:54:40.624Z,124.19
2023-04-07T11:55:40.608Z,127.19
2023-04-07T11:56:40.606Z,122.59
2023-04-07T11:57:40.582Z,112.69
2023-04-07T11:58:40.595Z,101.00
2023-04-07T11:59:40.557Z,96.19
2023-04-07T12:00:40.546Z,77.69
2023-04-07T12:01:40.604Z,70.40
2023-04-07T12:02:40.703Z,69.19
2023-04-07T12:03:40.595Z,69.50
2023-04-07T12:05:40.478Z,86.50
2023-04-07T12:06:40.470Z,91.69
2023-04-07T12:07:40.455Z,94.59
2023-04-07T12:08:40.444Z,103.30
2023-04-07T12:09:40.444Z,117.40
2023-04-07T12:10:40.457Z,127.09
2023-04-07T12:11:40.401Z,125.59
2023-04-07T12:12:40.390Z,124.90
2023-04-07T12:13:40.380Z,126.50
2023-04-07T12:14:40.389Z,127.69
2023-04-07T12:15:40.349Z,127.69
2023-04-07T12:16:40.414Z,124.40
2023-04-07T12:17:40.344Z,123.90
2023-04-07T12:18:40.312Z,126.50
2023-04-07T12:19:40.301Z,126.90
2023-04-07T12:20:40.290Z,127.59
2023-04-07T12:21:40.274Z,126.00
2023-04-07T12:22:40.261Z,126.00
2023-04-07T12:23:40.249Z,118.50
2023-04-07T12:24:40.233Z,100.30
2023-04-07T12:25:40.222Z,75.19
2023-04-07T12:26:40.209Z,73.30
2023-04-07T12:27:43.571Z,74.19
2023-04-07T12:28:40.181Z,98.09
2023-04-07T12:29:40.180Z,116.00
2023-04-07T12:30:40.184Z,123.90
2023-04-07T12:31:40.216Z,121.40
2023-04-07T12:32:40.159Z,114.40
2023-04-07T12:33:40.121Z,106.90
2023-04-07T12:34:40.102Z,103.09
2023-04-07T12:35:40.143Z,110.40
2023-04-07T12:36:40.082Z,110.09
2023-04-07T12:37:40.071Z,114.80
2023-04-07T12:38:40.051Z,123.80
2023-04-07T12:39:40.044Z,127.09
2023-04-07T12:40:40.037Z,127.40
2023-04-07T12:41:40.042Z,128.39
2023-04-07T12:42:40.006Z,125.69
2023-04-07T12:43:39.992Z,120.59
2023-04-07T12:44:39.975Z,120.69
2023-04-07T12:45:39.984Z,115.30
2023-04-07T12:46:39.968Z,106.90
2023-04-07T12:47:40.002Z,98.09
2023-04-07T12:48:39.925Z,77.80
2023-04-07T12:49:39.914Z,71.09
2023-04-07T12:50:39.901Z,71.19
2023-04-07T12:51:40.033Z,69.09
2023-04-07T12:52:39.872Z,67.59
2023-04-07T12:53:39.872Z,67.69
2023-04-07T12:54:39.857Z,69.00
2023-04-07T12:55:39.842Z,72.40
2023-04-07T12:56:39.819Z,72.19
2023-04-07T12:57:39.806Z,74.40
2023-04-07T12:58:39.815Z,94.80
2023-04-07T12:59:39.791Z,104.40
2023-04-07T13:00:39.766Z,119.69
2023-04-07T13:01:39.804Z,118.40
2023-04-07T13:02:39.917Z,110.19
2023-04-07T13:03:39.815Z,105.80